Time;durP1;ratioP1;P1;durP2;ratioP2;P2;SDS_P1;SDS_P2;PMS_P1;PMS_P2;Temp;Humidity;BMP_temperature;BMP_pressure;BME280_temperature;BME280_humidity;BME280_pressure;Samples;Min_cycle;Max_cycle;Signal;HPM_P1;HPM_P2
2023/02/03 00:01:29;;;;;;;;;3.25;3.25;;;;;9.15;70.10;102493.03;4971353;28;45365;-71
2023/02/03 00:03:54;;;;;;;;;6.25;6.25;;;;;9.13;70.53;102490.41;4973635;28;45395;-72
2023/02/03 00:06:20;;;;;;;;;7.00;7.00;;;;;9.15;70.84;102498.28;4972498;28;46889;-71
2023/02/03 00:08:46;;;;;;;;;2.75;2.75;;;;;9.15;70.74;102498.28;4973535;28;45405;-71
2023/02/03 00:11:12;;;;;;;;;1.75;1.75;;;;;9.13;70.56;102495.66;4973520;28;45867;-71
2023/02/03 00:13:37;;;;;;;;;4.50;4.50;;;;;9.11;70.99;102496.56;4973559;28;45383;-71
2023/02/03 00:16:05;;;;;;;;;3.00;3.00;;;;;9.11;71.01;102507.91;4972681;28;45649;-70
2023/02/03 00:18:31;;;;;;;;;1.75;1.75;;;;;9.05;70.80;102505.31;4972341;28;47416;-71
2023/02/03 00:20:57;;;;;;;;;1.75;1.75;;;;;9.00;71.00;102489.56;4988083;28;45410;-72
2023/02/03 00:23:23;;;;;;;;;2.25;2.25;;;;;9.02;70.98;102495.72;4973135;28;45787;-72
2023/02/03 00:25:48;;;;;;;;;3.00;3.00;;;;;9.01;71.16;102493.97;4973519;28;45237;-71
2023/02/03 00:28:13;;;;;;;;;3.00;3.00;;;;;9.01;70.92;102480.84;4973476;28;45478;-71
2023/02/03 00:30:39;;;;;;;;;3.00;3.00;;;;;9.03;70.98;102486.06;4973629;28;45582;-71
2023/02/03 00:33:04;;;;;;;;;1.50;1.50;;;;;9.04;70.93;102482.56;4972953;28;48803;-71
2023/02/03 00:35:30;;;;;;;;;2.50;2.50;;;;;9.02;70.71;102489.56;4974815;28;45216;-72
2023/02/03 00:37:56;;;;;;;;;5.75;5.75;;;;;9.00;71.16;102486.94;4974972;28;45355;-72
2023/02/03 00:40:24;;;;;;;;;3.00;3.00;;;;;8.97;71.35;102480.84;4972948;28;45240;-71
2023/02/03 00:42:49;;;;;;;;;4.00;4.00;;;;;8.94;71.49;102479.06;4973198;28;45323;-72
2023/02/03 00:45:15;;;;;;;;;3.00;3.00;;;;;8.87;71.67;102470.38;4973096;28;45449;-71
2023/02/03 00:47:40;;;;;;;;;6.00;6.00;;;;;8.94;71.46;102475.59;4972974;28;45521;-73
2023/02/03 00:50:06;;;;;;;;;3.50;3.50;;;;;8.95;71.56;102478.19;4973721;28;45326;-70
2023/02/03 00:52:32;;;;;;;;;2.50;2.50;;;;;8.92;71.68;102465.09;4972200;28;45444;-71
2023/02/03 00:54:57;;;;;;;;;3.75;3.75;;;;;8.83;71.29;102450.25;4973239;28;45385;-71
2023/02/03 00:57:22;;;;;;;;;3.00;3.00;;;;;8.79;71.84;102445.91;4972549;28;46146;-72
2023/02/03 00:59:48;;;;;;;;;2.50;2.50;;;;;8.82;72.41;102451.13;4972421;28;45388;-72
2023/02/03 01:02:13;;;;;;;;;5.00;5.00;;;;;8.83;71.97;102452.00;4972600;28;45648;-70
2023/02/03 01:04:39;;;;;;;;;4.00;4.00;;;;;8.88;71.91;102455.47;4972821;28;45545;-71
2023/02/03 01:07:04;;;;;;;;;3.25;3.25;;;;;8.81;72.00;102438.88;4972250;28;46205;-72
2023/02/03 01:09:34;;;;;;;;;3.00;3.00;;;;;8.83;71.42;102436.25;4972192;28;53799;-72
2023/02/03 01:11:59;;;;;;;;;2.25;2.25;;;;;8.82;71.79;102445.00;4972676;28;45346;-70
2023/02/03 01:14:25;;;;;;;;;3.00;3.00;;;;;8.65;71.61;102403.09;4972496;28;45486;-70
2023/02/03 01:16:50;;;;;;;;;6.00;6.00;;;;;8.84;71.64;102430.13;4972425;28;45832;-70
2023/02/03 01:19:15;;;;;;;;;1.75;1.75;;;;;8.83;71.97;102433.63;4973306;28;45962;-72
2023/02/03 01:21:41;;;;;;;;;4.75;4.75;;;;;8.73;71.64;102412.66;4972504;28;45312;-72
2023/02/03 01:24:08;;;;;;;;;1.25;1.25;;;;;8.83;71.90;102421.38;4973131;28;45552;-72
2023/02/03 01:26:33;;;;;;;;;2.75;2.75;;;;;8.84;71.74;102428.38;4972187;28;46556;-71
2023/02/03 01:29:00;;;;;;;;;4.25;4.25;;;;;8.83;71.47;102420.50;4971798;28;45376;-71
2023/02/03 01:31:35;;;;;;;;;2.00;2.00;;;;;8.84;71.65;102422.25;4973856;28;45196;-72
2023/02/03 01:34:01;;;;;;;;;1.50;1.50;;;;;8.60;71.29;102380.38;4975073;28;45501;-71
2023/02/03 01:36:29;;;;;;;;;1.75;1.75;;;;;8.83;71.60;102410.91;4975198;28;46070;-71
2023/02/03 01:38:55;;;;;;;;;1.00;1.00;;;;;8.85;71.73;102414.38;4975167;28;45464;-72
2023/02/03 01:41:24;;;;;;;;;0.75;0.75;;;;;8.85;71.55;102414.38;4975768;28;45393;-71
2023/02/03 01:43:52;;;;;;;;;2.00;2.00;;;;;8.85;71.39;102411.75;4976993;28;45697;-72
2023/02/03 01:46:32;;;;;;;;;1.25;1.25;;;;;8.85;71.68;102410.88;4975345;28;46381;-71
2023/02/03 01:49:08;;;;;;;;;1.75;1.75;;;;;8.82;71.57;102395.13;4975075;28;45480;-72
2023/02/03 01:51:35;;;;;;;;;3.50;3.50;;;;;8.79;71.95;102393.41;4975613;28;45505;-71
2023/02/03 01:54:00;;;;;;;;;2.25;2.25;;;;;8.75;72.09;102373.31;4975199;28;45233;-71
2023/02/03 01:56:31;;;;;;;;;1.00;1.00;;;;;8.73;72.15;102375.06;4975275;28;46162;-71
2023/02/03 01:58:59;;;;;;;;;1.25;1.25;;;;;8.69;72.06;102371.56;4974555;28;45747;-73
2023/02/03 02:01:24;;;;;;;;;5.00;5.00;;;;;8.71;71.92;102382.06;4975860;28;45276;-73
2023/02/03 02:03:56;;;;;;;;;2.75;2.75;;;;;8.65;72.01;102366.34;4976283;28;45300;-75
2023/02/03 02:06:21;;;;;;;;;1.75;1.75;;;;;8.68;72.15;102380.31;4977012;28;46249;-72
2023/02/03 02:08:50;;;;;;;;;2.00;2.00;;;;;8.70;71.81;102382.97;4977834;28;45302;-71
2023/02/03 02:11:17;;;;;;;;;1.00;1.00;;;;;8.72;71.88;102376.81;4976291;28;45341;-71
2023/02/03 02:13:44;;;;;;;;;1.50;1.50;;;;;8.53;71.62;102349.78;4974008;28;45390;-71
2023/02/03 02:16:20;;;;;;;;;1.00;1.00;;;;;8.71;71.36;102380.31;4973867;28;46432;-72
2023/02/03 02:19:33;;;;;;;;;1.00;1.00;;;;;8.73;71.31;102380.31;4974804;28;45348;-72
2023/02/03 02:22:01;;;;;;;;;1.75;1.75;;;;;8.71;70.97;102374.22;4987680;28;45446;-71
2023/02/03 02:24:45;;;;;;;;;2.00;2.00;;;;;8.71;70.77;102384.69;4973354;28;45435;-71
2023/02/03 02:27:47;;;;;;;;;2.00;2.00;;;;;8.72;70.32;102386.44;4973057;28;47059;-69
2023/02/03 02:30:56;;;;;;;;;1.00;1.00;;;;;8.72;70.36;102386.44;4973433;28;45370;-71
2023/02/03 02:33:35;;;;;;;;;1.50;1.50;;;;;8.71;70.29;102372.44;4993698;28;45500;-71
2023/02/03 02:36:24;;;;;;;;;2.00;2.00;;;;;8.73;70.29;102372.44;4975735;28;45358;-72
2023/02/03 02:39:09;;;;;;;;;0.00;0.00;;;;;8.71;69.91;102364.56;4975466;28;46562;-70
2023/02/03 02:41:34;;;;;;;;;1.00;1.00;;;;;8.70;70.91;102361.97;4976162;28;45388;-71
2023/02/03 02:44:22;;;;;;;;;2.25;2.25;;;;;8.69;69.62;102362.84;4974794;28;45283;-73
2023/02/03 02:46:53;;;;;;;;;0.00;0.00;;;;;8.65;69.91;102361.13;4973769;28;45414;-72
2023/02/03 02:49:27;;;;;;;;;1.50;1.50;;;;;8.51;69.59;102348.03;4974533;28;45447;-71
2023/02/03 02:51:53;;;;;;;;;2.00;2.00;;;;;8.54;69.78;102358.50;4975432;28;45374;-70
2023/02/03 02:54:22;;;;;;;;;0.00;0.00;;;;;8.50;70.00;102368.16;4974726;28;45365;-71
2023/02/03 02:56:53;;;;;;;;;0.50;0.50;;;;;8.50;70.30;102368.16;4974228;28;45586;-73
2023/02/03 02:59:18;;;;;;;;;1.00;1.00;;;;;8.44;70.21;102361.13;4973665;28;45621;-72
2023/02/03 03:01:44;;;;;;;;;2.00;2.00;;;;;8.41;70.26;102370.72;4974428;28;45432;-73
2023/02/03 03:04:12;;;;;;;;;1.00;1.00;;;;;8.47;70.20;102387.34;4972962;28;54136;-71
2023/02/03 03:06:44;;;;;;;;;1.00;1.00;;;;;8.38;70.35;102382.13;4975336;28;45357;-72
2023/02/03 03:09:16;;;;;;;;;1.00;1.00;;;;;8.46;70.19;102384.72;4975425;28;45413;-71
2023/02/03 03:11:50;;;;;;;;;0.50;0.50;;;;;8.42;70.10;102383.88;4974572;28;45278;-72
2023/02/03 03:14:18;;;;;;;;;1.00;1.00;;;;;8.51;69.82;102392.63;4973671;28;45281;-72
2023/02/03 03:16:52;;;;;;;;;3.00;1.00;;;;;8.45;69.67;102385.59;4973020;28;45508;-70
2023/02/03 03:19:22;;;;;;;;;1.50;1.50;;;;;8.49;69.76;102392.63;4972750;28;45553;-71
2023/02/03 03:22:01;;;;;;;;;1.00;1.00;;;;;8.55;69.54;102410.97;4973637;28;45446;-72
2023/02/03 03:24:32;;;;;;;;;1.00;1.00;;;;;8.58;69.77;102413.59;4973310;28;45357;-72
2023/02/03 03:27:05;;;;;;;;;0.50;0.50;;;;;8.61;69.86;102429.31;4974433;28;45352;-72
2023/02/03 03:29:39;;;;;;;;;0.75;0.75;;;;;8.66;69.49;102433.69;4974081;28;47249;-72
2023/02/03 03:32:05;;;;;;;;;0.00;0.00;;;;;8.67;69.42;102424.94;4973963;28;45325;-70
2023/02/03 03:34:32;;;;;;;;;0.50;0.50;;;;;8.58;69.81;102415.31;4974234;28;45444;-73
2023/02/03 03:37:10;;;;;;;;;1.00;1.00;;;;;8.68;69.82;102432.78;4973302;28;45301;-72
2023/02/03 03:39:47;;;;;;;;;0.50;0.50;;;;;8.69;69.39;102441.56;4977324;28;51047;-71
2023/02/03 03:42:22;;;;;;;;;0.25;0.25;;;;;8.66;69.61;102444.19;4973743;28;45387;-70
2023/02/03 03:44:56;;;;;;;;;1.00;1.00;;;;;8.71;69.40;102450.28;4972533;28;45408;-72
2023/02/03 03:47:49;;;;;;;;;0.00;0.00;;;;;8.69;69.21;102455.53;4973873;28;45268;-71
2023/02/03 03:50:25;;;;;;;;;1.00;1.00;;;;;8.70;69.34;102466.91;4973993;28;46138;-72
2023/02/03 03:52:53;;;;;;;;;1.50;1.50;;;;;8.70;69.17;102449.41;4972370;28;45525;-72
2023/02/03 03:55:19;;;;;;;;;0.00;0.00;;;;;8.70;69.10;102464.28;4973696;28;45252;-72
2023/02/03 03:57:55;;;;;;;;;0.50;0.50;;;;;8.67;69.06;102465.16;4973820;28;45375;-71
2023/02/03 04:00:25;;;;;;;;;1.50;1.50;;;;;8.68;69.18;102468.66;4973466;28;45432;-71
2023/02/03 04:02:54;;;;;;;;;1.00;1.00;;;;;8.66;69.45;102452.06;4973528;28;45207;-71
2023/02/03 04:05:22;;;;;;;;;0.25;0.25;;;;;8.65;69.18;102445.06;4974016;28;45367;-72
2023/02/03 04:07:47;;;;;;;;;0.00;0.00;;;;;8.61;69.23;102433.69;4973755;28;45470;-72
2023/02/03 04:10:33;;;;;;;;;0.00;0.00;;;;;8.62;69.20;102438.06;4974087;28;45433;-71
2023/02/03 04:12:59;;;;;;;;;1.00;1.00;;;;;8.54;69.22;102419.72;4974092;28;45402;-70
2023/02/03 04:15:24;;;;;;;;;0.00;0.00;;;;;8.58;69.47;102424.09;4973470;28;45290;-72
2023/02/03 04:17:50;;;;;;;;;0.75;0.75;;;;;8.56;69.22;102417.97;4974271;28;45224;-71
2023/02/03 04:20:15;;;;;;;;;0.75;0.75;;;;;8.56;69.58;102412.72;4973957;28;64243;-72
2023/02/03 04:22:41;;;;;;;;;0.50;0.50;;;;;8.60;69.62;102419.72;4972471;28;45197;-70
2023/02/03 04:25:07;;;;;;;;;0.50;0.50;;;;;8.59;69.35;102407.47;4973068;28;45315;-72
2023/02/03 04:27:33;;;;;;;;;0.00;0.00;;;;;8.62;69.38;102412.72;4974319;28;45253;-71
2023/02/03 04:29:59;;;;;;;;;1.00;1.00;;;;;8.60;69.17;102405.72;4973603;28;45354;-70
2023/02/03 04:32:24;;;;;;;;;0.75;0.75;;;;;8.67;69.29;102409.19;4974904;28;45202;-71
2023/02/03 04:34:49;;;;;;;;;0.25;0.25;;;;;8.67;69.37;102417.06;4974570;28;45296;-69
2023/02/03 04:37:14;;;;;;;;;0.00;0.00;;;;;8.70;69.55;102414.44;4974176;28;45299;-71
2023/02/03 04:39:40;;;;;;;;;0.00;0.00;;;;;8.69;69.10;102404.81;4973422;28;46042;-70
2023/02/03 04:42:05;;;;;;;;;0.00;0.00;;;;;8.69;68.85;102399.56;4973533;28;45442;-71
2023/02/03 04:44:30;;;;;;;;;0.00;0.00;;;;;8.68;69.09;102405.69;4973653;28;45353;-70
2023/02/03 04:46:56;;;;;;;;;1.00;1.00;;;;;8.68;69.53;102408.31;4973480;28;45527;-69
2023/02/03 04:49:21;;;;;;;;;0.50;0.50;;;;;8.72;69.30;102420.56;4971773;28;47065;-71
2023/02/03 04:51:50;;;;;;;;;0.00;0.00;;;;;8.68;69.87;102419.69;4973599;28;48859;-72
2023/02/03 04:54:15;;;;;;;;;1.00;1.00;;;;;8.62;69.95;102407.47;4975666;28;45220;-73
2023/02/03 04:56:41;;;;;;;;;0.00;0.00;;;;;8.61;70.04;102408.34;4975135;28;45505;-71
2023/02/03 04:59:06;;;;;;;;;0.00;0.00;;;;;8.61;70.40;102421.47;4973774;28;45297;-72
2023/02/03 05:01:32;;;;;;;;;1.00;1.00;;;;;8.62;70.42;102422.31;4975611;28;45261;-71
2023/02/03 05:03:57;;;;;;;;;0.25;0.25;;;;;8.56;71.01;102412.72;4974805;28;45252;-72
2023/02/03 05:06:27;;;;;;;;;0.75;0.75;;;;;8.65;70.66;102421.44;4972248;28;45664;-71
2023/02/03 05:08:53;;;;;;;;;0.00;0.00;;;;;8.62;70.60;102411.81;4973239;28;46159;-72
2023/02/03 05:11:18;;;;;;;;;0.75;0.75;;;;;8.62;70.36;102403.94;4974149;28;45333;-72
2023/02/03 05:13:44;;;;;;;;;0.75;0.75;;;;;8.62;70.42;102417.97;4974377;28;45405;-73
2023/02/03 05:16:09;;;;;;;;;0.00;0.00;;;;;8.64;70.79;102419.69;4975685;28;45199;-72
2023/02/03 05:18:35;;;;;;;;;0.75;0.75;;;;;8.61;70.53;102434.56;4971584;28;47456;-72
2023/02/03 05:21:00;;;;;;;;;1.00;1.00;;;;;8.59;70.75;102432.81;4972537;28;45367;-72
2023/02/03 05:23:25;;;;;;;;;2.75;2.75;;;;;8.64;71.09;102440.69;4972566;28;45281;-72
2023/02/03 05:25:51;;;;;;;;;1.50;1.50;;;;;8.66;70.76;102447.66;4974095;28;45279;-71
2023/02/03 05:28:16;;;;;;;;;0.50;0.50;;;;;8.64;71.02;102443.31;4973071;28;45348;-71
2023/02/03 05:30:42;;;;;;;;;0.00;0.00;;;;;8.66;71.04;102441.56;4972284;28;46521;-72
2023/02/03 05:33:07;;;;;;;;;0.50;0.50;;;;;8.71;71.31;102442.41;4972724;28;45190;-71
2023/02/03 05:35:33;;;;;;;;;1.00;1.00;;;;;8.72;71.41;102457.28;4972203;28;45646;-72
2023/02/03 05:37:58;;;;;;;;;0.75;0.75;;;;;8.69;71.55;102460.78;4973274;28;46139;-71
2023/02/03 05:43:08;;;;;;;;;2.25;2.25;;;;;8.72;71.11;102457.28;4972063;28;45378;-70
2023/02/03 05:45:33;;;;;;;;;0.75;0.75;;;;;8.75;70.94;102455.50;4972250;28;45324;-72
2023/02/03 05:48:01;;;;;;;;;2.00;2.00;;;;;8.73;71.14;102459.88;4972125;28;45466;-71
2023/02/03 05:50:29;;;;;;;;;2.25;2.25;;;;;8.72;71.40;102454.66;4972209;28;45245;-72
2023/02/03 05:52:54;;;;;;;;;2.00;2.00;;;;;8.80;71.35;102460.75;4972637;28;45247;-71
2023/02/03 05:55:19;;;;;;;;;1.00;1.00;;;;;8.80;71.50;102458.13;4972562;28;45596;-72
2023/02/03 05:57:45;;;;;;;;;2.50;2.50;;;;;8.88;71.20;102465.97;4970638;28;48391;-72
2023/02/03 06:00:11;;;;;;;;;1.00;1.00;;;;;8.90;71.05;102466.84;4970704;28;46044;-72
2023/02/03 06:02:36;;;;;;;;;1.00;1.00;;;;;8.89;70.16;102463.34;4972201;28;45244;-71
2023/02/03 06:05:01;;;;;;;;;0.00;0.00;;;;;8.88;70.55;102466.88;4972493;28;45559;-71
2023/02/03 06:07:27;;;;;;;;;0.75;0.75;;;;;8.86;70.41;102467.72;4971794;28;45899;-71
2023/02/03 06:09:52;;;;;;;;;0.50;0.50;;;;;8.80;70.67;102459.88;4972101;28;45387;-70
2023/02/03 06:12:18;;;;;;;;;64.50;53.00;;;;;8.79;70.80;102461.63;4972247;28;45216;-72
2023/02/03 06:14:43;;;;;;;;;2.00;2.00;;;;;8.74;70.76;102459.00;4972392;28;45666;-71
2023/02/03 06:17:08;;;;;;;;;1.25;1.25;;;;;8.67;70.50;102436.28;4972206;28;46003;-72
2023/02/03 06:19:34;;;;;;;;;1.00;1.00;;;;;8.71;70.63;102445.91;4975431;28;45248;-72
2023/02/03 06:21:59;;;;;;;;;0.00;0.00;;;;;8.73;70.80;102456.41;4978515;28;45918;-74
2023/02/03 06:24:24;;;;;;;;;0.50;0.50;;;;;8.68;71.05;102443.28;4978798;28;45511;-74
2023/02/03 06:26:50;;;;;;;;;0.50;0.50;;;;;8.71;71.34;102447.66;4974927;28;45334;-71
2023/02/03 06:29:15;;;;;;;;;1.25;1.25;;;;;8.71;71.68;102455.53;4974531;28;45478;-72
2023/02/03 06:31:41;;;;;;;;;0.50;0.50;;;;;8.62;71.95;102446.81;4974837;28;45444;-71
2023/02/03 06:34:06;;;;;;;;;1.50;1.50;;;;;8.54;71.97;102440.72;4974842;28;45382;-72
2023/02/03 06:36:31;;;;;;;;;2.00;2.00;;;;;8.57;71.86;102464.31;4974263;28;45352;-71
2023/02/03 06:38:58;;;;;;;;;1.00;1.00;;;;;8.56;72.38;102459.06;4975008;28;45295;-73
2023/02/03 06:41:27;;;;;;;;;0.75;0.75;;;;;8.50;72.66;102461.69;4976160;28;45347;-73
2023/02/03 06:43:52;;;;;;;;;2.00;2.00;;;;;8.50;73.28;102461.69;4975925;28;45510;-71
2023/02/03 06:46:18;;;;;;;;;1.00;1.00;;;;;8.48;73.61;102457.28;4974776;28;46498;-72
2023/02/03 06:48:43;;;;;;;;;4.00;4.00;;;;;8.52;74.08;102462.56;4974503;28;45182;-71
2023/02/03 06:51:09;;;;;;;;;5.00;5.00;;;;;8.50;74.96;102457.31;4974527;28;45404;-72
2023/02/03 06:53:34;;;;;;;;;2.00;2.00;;;;;8.46;75.40;102460.75;4973087;28;45629;-72
2023/02/03 06:56:01;;;;;;;;;1.25;1.25;;;;;8.40;75.12;102455.53;4974457;28;46133;-72
2023/02/03 06:58:26;;;;;;;;;1.00;1.00;;;;;8.39;75.63;102448.53;4974015;28;45430;-71
2023/02/03 07:00:54;;;;;;;;;1.50;1.50;;;;;8.36;75.56;102451.16;4974582;28;45397;-72
2023/02/03 07:03:20;;;;;;;;;0.75;0.75;;;;;8.29;75.55;102461.66;4974943;28;45560;-72
2023/02/03 07:05:45;;;;;;;;;2.00;2.00;;;;;8.24;75.66;102470.41;4973958;27;51247;-73
2023/02/03 07:08:10;;;;;;;;;2.25;2.25;;;;;8.21;76.17;102473.03;4974017;28;45215;-70
2023/02/03 07:10:36;;;;;;;;;3.00;3.00;;;;;8.23;76.18;102477.38;4974284;28;45229;-72
2023/02/03 07:13:03;;;;;;;;;1.75;1.75;;;;;8.27;75.63;102480.91;4978503;28;45237;-71
2023/02/03 07:15:29;;;;;;;;;2.25;1.75;;;;;8.30;75.69;102473.03;5018584;27;47134;-70
2023/02/03 07:17:54;;;;;;;;;2.00;2.00;;;;;8.29;75.77;102471.28;4976462;28;45367;-72
2023/02/03 07:20:21;;;;;;;;;2.50;2.50;;;;;8.31;75.85;102480.88;4973849;28;45788;-70
2023/02/03 07:22:54;;;;;;;;;2.50;2.50;;;;;8.33;75.94;102487.00;4973223;28;45359;-71
2023/02/03 07:25:20;;;;;;;;;3.00;3.00;;;;;8.31;75.42;102480.88;4957805;28;46182;-71
2023/02/03 07:27:45;;;;;;;;;3.50;3.50;;;;;8.28;75.58;102473.03;4953127;28;45463;-71
2023/02/03 07:30:11;;;;;;;;;2.50;2.50;;;;;8.36;75.86;102485.25;4962263;28;45464;-73
2023/02/03 07:32:37;;;;;;;;;3.00;3.00;;;;;8.39;75.58;102478.28;4976158;28;45429;-72
2023/02/03 07:35:02;;;;;;;;;1.75;1.75;;;;;8.40;75.62;102485.25;4967584;28;46631;-74
2023/02/03 07:37:27;;;;;;;;;3.00;3.00;;;;;8.39;75.66;102483.50;4973244;28;45417;-75
2023/02/03 07:39:53;;;;;;;;;7.75;7.75;;;;;8.30;75.51;102471.28;4973337;28;45300;-75
2023/02/03 07:42:18;;;;;;;;;4.50;4.50;;;;;8.41;75.57;102476.53;4969409;28;45494;-74
2023/02/03 07:44:43;;;;;;;;;2.00;2.00;;;;;8.45;74.89;102488.75;4954311;28;45461;-74
2023/02/03 07:47:09;;;;;;;;;3.25;3.25;;;;;8.48;75.39;102478.25;4955351;28;45466;-71
2023/02/03 07:49:34;;;;;;;;;1.50;1.50;;;;;8.51;75.24;102487.03;4969087;28;45440;-73
2023/02/03 07:51:59;;;;;;;;;2.50;2.50;;;;;8.50;75.15;102494.06;4973298;28;45474;-72
2023/02/03 07:54:25;;;;;;;;;1.75;1.75;;;;;8.50;74.95;102493.16;4972218;28;46275;-73
2023/02/03 07:56:51;;;;;;;;;3.00;3.00;;;;;8.48;75.34;102487.88;4973907;28;45333;-73
2023/02/03 07:59:16;;;;;;;;;5.00;5.00;;;;;8.50;75.71;102486.19;4973410;28;45515;-73
2023/02/03 08:01:41;;;;;;;;;3.00;3.00;;;;;8.51;75.34;102493.19;4973985;28;45323;-72
2023/02/03 08:04:07;;;;;;;;;3.75;3.75;;;;;8.52;75.30;102507.16;4973622;28;45386;-73
2023/02/03 08:06:33;;;;;;;;;6.25;6.25;;;;;8.57;76.01;102506.28;4973564;28;45222;-72
2023/02/03 08:08:58;;;;;;;;;5.00;5.00;;;;;8.60;75.24;102508.00;4972931;28;45375;-74
2023/02/03 08:11:24;;;;;;;;;3.00;3.00;;;;;8.64;75.17;102508.91;4974147;28;45207;-74
2023/02/03 08:13:49;;;;;;;;;3.25;3.25;;;;;8.65;74.67;102503.63;4973290;28;46297;-72
2023/02/03 08:16:15;;;;;;;;;3.25;3.25;;;;;8.69;75.03;102509.75;4973545;28;45464;-74
2023/02/03 08:18:40;;;;;;;;;4.25;4.25;;;;;8.74;74.87;102521.13;4975050;28;45767;-73
2023/02/03 08:21:05;;;;;;;;;4.75;4.75;;;;;8.79;74.66;102521.09;4974308;28;45561;-72
2023/02/03 08:23:31;;;;;;;;;3.75;3.75;;;;;8.72;74.49;102507.13;4973464;28;46226;-73
2023/02/03 08:25:56;;;;;;;;;3.75;3.75;;;;;8.83;74.54;102521.13;4973561;28;45515;-73
2023/02/03 08:28:22;;;;;;;;;4.00;4.00;;;;;8.80;74.13;102510.63;4973382;28;45450;-72
2023/02/03 08:30:47;;;;;;;;;3.75;3.75;;;;;8.82;74.14;102519.38;4973385;28;45419;-71
2023/02/03 08:33:13;;;;;;;;;4.50;4.50;;;;;8.89;74.32;102530.72;4973064;28;46283;-73
2023/02/03 08:35:39;;;;;;;;;4.00;4.00;;;;;8.92;73.96;102538.56;4973248;28;45757;-72
2023/02/03 08:38:06;;;;;;;;;4.75;4.75;;;;;8.95;73.63;102540.34;4973273;28;45261;-72
2023/02/03 08:40:32;;;;;;;;;5.75;5.75;;;;;8.94;73.51;102534.19;4972271;28;45248;-73
2023/02/03 08:43:01;;;;;;;;;4.00;4.00;;;;;8.97;73.63;102536.81;4973984;28;46169;-72
2023/02/03 08:45:26;;;;;;;;;3.75;3.75;;;;;8.99;73.48;102544.69;4973331;28;45320;-72
2023/02/03 08:47:51;;;;;;;;;4.25;4.25;;;;;9.02;73.46;102542.97;4973104;28;45283;-73
2023/02/03 08:50:18;;;;;;;;;2.75;2.75;;;;;9.01;73.62;102535.97;4973431;28;45438;-71
2023/02/03 08:52:44;;;;;;;;;4.25;4.25;;;;;9.03;73.85;102546.44;4972785;28;46250;-74
2023/02/03 08:55:10;;;;;;;;;2.75;2.75;;;;;9.02;74.30;102547.31;4970978;28;45364;-73
2023/02/03 08:57:36;;;;;;;;;3.25;3.25;;;;;9.02;74.51;102547.31;4972796;28;45208;-71
2023/02/03 09:00:05;;;;;;;;;3.00;3.00;;;;;9.01;74.65;102548.19;4972962;28;45496;-72
2023/02/03 09:02:31;;;;;;;;;4.50;4.50;;;;;9.03;74.98;102551.69;4972763;28;45341;-72
2023/02/03 09:04:56;;;;;;;;;3.75;3.75;;;;;9.04;74.73;102540.31;4971893;28;45272;-71
2023/02/03 09:07:26;;;;;;;;;2.00;2.00;;;;;9.03;74.39;102534.22;4972775;28;45345;-73
2023/02/03 09:09:51;;;;;;;;;3.00;3.00;;;;;9.04;74.45;102541.22;4971610;28;45648;-72
2023/02/03 09:12:17;;;;;;;;;2.50;2.50;;;;;8.98;74.73;102532.44;4972145;28;46089;-72
2023/02/03 09:14:42;;;;;;;;;3.25;3.25;;;;;9.05;74.69;102542.06;4972653;28;45460;-72
2023/02/03 09:17:09;;;;;;;;;4.00;4.00;;;;;9.04;75.44;102538.56;4972768;28;45272;-71
2023/02/03 09:19:34;;;;;;;;;2.75;2.75;;;;;9.07;75.55;102542.94;4973124;28;45350;-71
2023/02/03 09:22:00;;;;;;;;;3.00;3.00;;;;;9.09;75.46;102554.31;4973612;28;46064;-71
2023/02/03 09:24:25;;;;;;;;;4.00;4.00;;;;;9.06;75.55;102554.31;4973070;28;45389;-72
2023/02/03 09:26:51;;;;;;;;;4.00;4.00;;;;;8.96;75.43;102545.56;4974052;28;45363;-71
2023/02/03 09:29:16;;;;;;;;;2.25;2.25;;;;;8.99;75.61;102542.94;4973793;28;45375;-73
2023/02/03 09:31:42;;;;;;;;;2.75;2.75;;;;;8.95;75.73;102542.97;4973957;28;46060;-71
2023/02/03 09:34:08;;;;;;;;;4.00;4.00;;;;;8.94;75.79;102547.31;4972934;28;45416;-73
2023/02/03 09:36:33;;;;;;;;;4.25;4.25;;;;;9.02;76.19;102553.47;4972358;28;45291;-71
2023/02/03 09:38:59;;;;;;;;;4.00;4.00;;;;;9.05;76.48;102555.19;4973409;28;45421;-73
2023/02/03 09:41:59;;;;;;;;;3.25;3.25;;;;;9.10;76.14;102566.56;4972781;28;45997;-72
2023/02/03 09:44:31;;;;;;;;;4.00;4.00;;;;;9.16;76.06;102570.94;4992850;28;45643;-72
2023/02/03 09:47:01;;;;;;;;;4.00;4.00;;;;;9.15;75.83;102580.53;4972274;28;45256;-73
2023/02/03 09:49:40;;;;;;;;;4.25;4.25;;;;;9.17;76.32;102583.19;4972889;28;45438;-73
2023/02/03 09:52:12;;;;;;;;;2.75;2.75;;;;;9.17;75.98;102577.94;4973448;28;47800;-71
2023/02/03 09:55:00;;;;;;;;;5.00;5.00;;;;;9.19;76.53;102581.44;4975193;28;45371;-72
2023/02/03 09:57:30;;;;;;;;;4.00;4.00;;;;;9.21;76.01;102580.53;4975224;28;45315;-73
2023/02/03 10:00:00;;;;;;;;;4.25;4.25;;;;;9.22;75.90;102581.41;4975520;28;45342;-72
2023/02/03 10:02:35;;;;;;;;;5.00;5.00;;;;;9.23;75.66;102584.91;4975016;28;47303;-73
2023/02/03 10:05:06;;;;;;;;;5.00;4.75;;;;;9.25;75.57;102583.16;4975437;28;45334;-72
2023/02/03 10:07:37;;;;;;;;;4.75;4.75;;;;;9.24;75.69;102589.28;4974362;28;45405;-72
2023/02/03 10:10:34;;;;;;;;;5.75;5.75;;;;;9.24;75.99;102590.16;4975654;28;45178;-72
2023/02/03 10:13:21;;;;;;;;;10.75;10.75;;;;;9.26;75.92;102580.53;4975273;28;45542;-72
2023/02/03 10:15:53;;;;;;;;;6.75;6.75;;;;;9.32;75.91;102582.25;4974954;28;45472;-72
2023/02/03 10:18:25;;;;;;;;;4.25;4.25;;;;;9.38;75.85;102570.88;4974923;28;45347;-72
2023/02/03 10:20:56;;;;;;;;;6.75;6.75;;;;;9.44;75.67;102570.84;4975245;28;45397;-73
2023/02/03 10:23:36;;;;;;;;;4.75;4.75;;;;;9.56;75.23;102585.72;4973496;28;47255;-72
2023/02/03 10:26:08;;;;;;;;;7.75;7.75;;;;;9.42;75.38;102549.81;4975158;28;45327;-73
2023/02/03 10:28:41;;;;;;;;;5.25;5.25;;;;;9.69;74.52;102581.25;4973974;28;45414;-73
2023/02/03 10:31:18;;;;;;;;;8.50;8.50;;;;;9.71;74.79;102587.38;4975106;28;45409;-74
2023/02/03 10:33:44;;;;;;;;;4.50;4.50;;;;;9.72;74.34;102586.50;4973736;28;45377;-74
2023/02/03 10:36:22;;;;;;;;;4.75;4.75;;;;;9.74;74.44;102588.25;4974623;28;45338;-73
2023/02/03 10:39:00;;;;;;;;;5.50;5.50;;;;;9.82;74.58;102584.72;4975223;28;45268;-74
2023/02/03 10:41:29;;;;;;;;;5.25;5.25;;;;;9.89;73.77;102584.66;4974866;28;45584;-73
2023/02/03 10:43:55;;;;;;;;;7.50;7.50;;;;;9.95;73.54;102581.13;4974732;28;45393;-72
2023/02/03 10:46:28;;;;;;;;;7.25;7.25;;;;;10.04;73.96;102594.22;4974798;28;45189;-73
2023/02/03 10:48:54;;;;;;;;;3.50;3.50;;;;;10.07;73.29;102586.31;4973478;28;45466;-72
2023/02/03 10:51:21;;;;;;;;;3.75;3.75;;;;;10.06;72.84;102591.56;4974750;28;45577;-72
2023/02/03 10:53:47;;;;;;;;;3.50;3.50;;;;;10.07;73.34;102596.84;4974537;28;45289;-73
2023/02/03 10:56:16;;;;;;;;;2.50;2.50;;;;;10.07;72.66;102586.31;4974155;28;45280;-72
2023/02/03 10:59:00;;;;;;;;;7.00;7.00;;;;;10.06;73.17;102581.94;4973400;28;45276;-73
2023/02/03 11:01:47;;;;;;;;;6.50;6.50;;;;;10.09;73.08;102583.69;4975906;28;45405;-74
2023/02/03 11:04:26;;;;;;;;;3.50;3.50;;;;;10.09;72.79;102581.94;4971809;28;47428;-73
2023/02/03 11:07:02;;;;;;;;;3.25;3.25;;;;;10.06;72.90;102591.56;4974308;28;45380;-73
2023/02/03 11:09:30;;;;;;;;;2.00;2.00;;;;;10.03;73.35;102581.97;4974664;28;45320;-73
2023/02/03 11:12:25;;;;;;;;;8.25;8.25;;;;;9.89;73.17;102547.00;4974740;28;45421;-73
2023/02/03 11:14:52;;;;;;;;;3.25;3.25;;;;;10.09;73.52;102570.56;4987388;28;45527;-73
2023/02/03 11:17:26;;;;;;;;;3.00;3.00;;;;;10.13;73.50;102574.03;4974577;28;45364;-73
2023/02/03 11:19:56;;;;;;;;;5.50;5.50;;;;;10.19;73.11;102573.97;4975392;28;45334;-72
2023/02/03 11:22:29;;;;;;;;;7.00;7.00;;;;;10.25;73.37;102573.94;4975590;28;45466;-73
2023/02/03 11:24:55;;;;;;;;;7.50;7.25;;;;;10.33;72.88;102579.16;4974350;28;45505;-72
2023/02/03 11:27:23;;;;;;;;;4.25;4.25;;;;;10.37;73.33;102573.84;4972558;28;45613;-73
2023/02/03 11:30:10;;;;;;;;;5.50;5.50;;;;;10.35;72.56;102569.50;4974173;28;45399;-73
2023/02/03 11:32:40;;;;;;;;;3.25;3.25;;;;;10.36;73.23;102561.59;4975229;28;45408;-73
2023/02/03 11:35:17;;;;;;;;;6.75;6.75;;;;;10.36;72.85;102579.13;4974813;28;46408;-72
2023/02/03 11:37:48;;;;;;;;;10.75;10.75;;;;;10.33;73.00;102566.00;4974139;28;45398;-73
2023/02/03 11:40:14;;;;;;;;;7.00;7.00;;;;;10.23;74.00;102568.72;4974265;28;45390;-73
2023/02/03 11:42:42;;;;;;;;;10.25;10.25;;;;;10.18;74.44;102565.22;4973570;28;45597;-73